Mercur 201 — YP2350 — position and weather

sailwx.info

Track history (hours):
 
Tides and Currents Weather Stations Pressure Air Temp Water Temp Dewpoint Dewpoint Depression Visibility Wind Speed Wind Dir Waves Ship Positions

Mercur 201

Last reported at 2017-Nov-23 10:59 UTC. Time now 2017-Nov-23 11:10 UTC.
Position N 43°59' E 022°53'.

Length 35 m; draft 2.3 m.

Type: Ship. MMSI: 264162350.

Date/timePositionNaut miles runAvg speedWind from/ knotsBaromVisibWave heightAir tempDewpointWater temp
2017-Nov-23 10:59N 43°59' E 022°53'2 3.8
2017-Nov-23 10:30N 43°60' E 022°56'0 0.5
2017-Nov-23 10:00N 43°60' E 022°55'0 0.1
2017-Nov-23 09:30N 43°60' E 022°55'0 0.7
2017-Nov-23 09:00N 43°60' E 022°56'0 0.0
2017-Nov-23 08:30N 43°60' E 022°56'0 0.0
2017-Nov-23 08:00N 43°60' E 022°56'0 0.0
2017-Nov-23 07:30N 43°60' E 022°56'0 0.0
2017-Nov-23 07:00N 43°60' E 022°56'0 0.0
2017-Nov-23 06:30N 43°60' E 022°56'0 0.0
2017-Nov-23 06:00N 43°60' E 022°56'0 0.0
2017-Nov-23 05:30N 43°60' E 022°56'0 0.0
2017-Nov-23 05:00N 43°60' E 022°56'0 0.0
2017-Nov-23 04:30N 43°60' E 022°56'0 0.0
2017-Nov-23 04:00N 43°60' E 022°56'0 0.0
2017-Nov-23 03:30N 43°60' E 022°56'0 0.0
2017-Nov-23 03:00N 43°60' E 022°56'0 0.0
2017-Nov-23 02:30N 43°60' E 022°56'0 0.0
2017-Nov-23 02:00N 43°60' E 022°56'0 0.0
2017-Nov-23 01:30N 43°60' E 022°56'0 0.0
2017-Nov-23 01:00N 43°60' E 022°56'0 0.0
2017-Nov-23 00:30N 43°60' E 022°56'0 0.0
2017-Nov-23 00:00N 43°60' E 022°56'0 0.0
2017-Nov-22 23:30N 43°60' E 022°56'0 0.0
2017-Nov-22 23:00N 43°60' E 022°56'0 0.0
2017-Nov-22 22:30N 43°60' E 022°56'0 0.0
2017-Nov-22 22:00N 43°60' E 022°56'0 0.7
2017-Nov-22 21:30N 43°60' E 022°55'1 1.2
2017-Nov-22 21:00N 44°00' E 022°56'4 7.1
2017-Nov-22 20:30N 44°01' E 023°01'3 6.4
2017-Nov-22 20:00N 44°04' E 023°03'3 5.9
2017-Nov-22 19:30N 44°06' E 022°60'  
2017-Nov-15 06:54N 44°12' E 028°23'2 4.7
2017-Nov-15 06:30N 44°10' E 028°24'1 2.4
2017-Nov-15 05:56N 44°09' E 028°26'5 3.2
2017-Nov-15 04:22N 44°06' E 028°31'1 3.9
2017-Nov-15 04:00N 44°06' E 028°33'2 4.0
2017-Nov-15 03:30N 44°06' E 028°36'1 2.0
2017-Nov-15 03:00N 44°06' E 028°37'0 0.3
2017-Nov-15 02:30N 44°06' E 028°38'1 1.9
2017-Nov-15 02:00N 44°06' E 028°39'1 1.9
2017-Nov-15 01:30N 44°07' E 028°39'0 0.5
2017-Nov-15 01:00N 44°08' E 028°39'0 0.0
2017-Nov-15 00:30N 44°08' E 028°39'0 0.0
2017-Nov-15 00:01N 44°08' E 028°39'0 0.0
2017-Nov-14 23:30N 44°08' E 028°39'0 0.0
2017-Nov-14 23:01N 44°08' E 028°39'0 0.0
2017-Nov-14 22:30N 44°08' E 028°39'0 0.0
2017-Nov-14 22:00N 44°08' E 028°39'0 0.0
2017-Nov-14 21:31N 44°08' E 028°39'0 0.0
2017-Nov-14 21:01N 44°08' E 028°39'0 0.8
2017-Nov-14 20:29N 44°08' E 028°39'0 0.0
2017-Nov-14 20:00N 44°08' E 028°39'0 0.0
2017-Nov-14 19:30N 44°08' E 028°39'0 0.0
2017-Nov-14 19:00N 44°08' E 028°39'0 0.0
2017-Nov-14 18:30N 44°08' E 028°39'0 0.0
2017-Nov-14 18:00N 44°08' E 028°39'0 0.0
2017-Nov-14 17:30N 44°08' E 028°39'0 0.0
2017-Nov-14 17:00N 44°08' E 028°39'0 0.0
2017-Nov-14 16:30N 44°08' E 028°39'0 0.0
2017-Nov-14 16:00N 44°08' E 028°39'0 0.0
2017-Nov-14 15:30N 44°08' E 028°39'0 0.0
2017-Nov-14 15:00N 44°08' E 028°39'0 0.0
2017-Nov-14 14:30N 44°08' E 028°39'0 0.0
2017-Nov-14 14:00N 44°08' E 028°39'0 0.0
2017-Nov-14 13:30N 44°08' E 028°39'0 0.0
2017-Nov-14 13:00N 44°08' E 028°39'0 0.0
2017-Nov-14 12:30N 44°08' E 028°39'0 0.0
2017-Nov-14 12:00N 44°08' E 028°39'0 0.0
2017-Nov-14 11:30N 44°08' E 028°39'0 0.0
2017-Nov-14 11:00N 44°08' E 028°39'0 0.0
2017-Nov-14 10:30N 44°08' E 028°39'0 0.0
2017-Nov-14 10:00N 44°08' E 028°39'0 0.0
2017-Nov-14 09:30N 44°08' E 028°39'0 0.0
2017-Nov-14 09:00N 44°08' E 028°39'0 0.0
2017-Nov-14 08:30N 44°08' E 028°39'0 0.0
2017-Nov-14 08:00N 44°08' E 028°39'1 1.6
2017-Nov-14 07:30N 44°07' E 028°39'0 0.2
2017-Nov-14 07:00N 44°07' E 028°39'0 0.0
2017-Nov-14 06:30N 44°07' E 028°39'0 0.2
2017-Nov-14 06:00N 44°07' E 028°39'2 3.0
2017-Nov-14 05:30N 44°06' E 028°38'0 0.6
2017-Nov-14 05:00N 44°06' E 028°37'0 0.7
2017-Nov-14 04:30N 44°06' E 028°37'2 3.4
2017-Nov-14 04:00N 44°06' E 028°34'2 3.1
2017-Nov-14 03:29N 44°06' E 028°32'5 2.6
2017-Nov-14 01:21N 44°09' E 028°26'1 3.2
2017-Nov-14 01:00N 44°10' E 028°25'1 2.9
2017-Nov-14 00:30N 44°11' E 028°24'1 2.0
2017-Nov-14 00:00N 44°12' E 028°23'2 3.5
2017-Nov-13 23:30N 44°14' E 028°22'2 4.1
2017-Nov-13 23:00N 44°15' E 028°20'2 3.8
2017-Nov-13 22:30N 44°15' E 028°17'2 3.2
2017-Nov-13 21:59N 44°15' E 028°15'  
Track history (hours):
 
Tides and Currents Weather Stations Pressure Air Temp Water Temp Dewpoint Dewpoint Depression Visibility Wind Speed Wind Dir Waves Ship Positions

Mercur 201

Last reported at 2017-Nov-23 10:59 UTC. Time now 2017-Nov-23 11:10 UTC.
Position N 43°59' E 022°53'.

Length 35 m; draft 2.3 m.

Type: Ship. MMSI: 264162350.

Date/timePositionNaut miles runAvg speedWind from/ knotsBaromVisibWave heightAir tempDewpointWater temp
2017-Nov-23 10:59N 43°59' E 022°53'2 3.8
2017-Nov-23 10:30N 43°60' E 022°56'0 0.5
2017-Nov-23 10:00N 43°60' E 022°55'0 0.1
2017-Nov-23 09:30N 43°60' E 022°55'0 0.7
2017-Nov-23 09:00N 43°60' E 022°56'0 0.0
2017-Nov-23 08:30N 43°60' E 022°56'0 0.0
2017-Nov-23 08:00N 43°60' E 022°56'0 0.0
2017-Nov-23 07:30N 43°60' E 022°56'0 0.0
2017-Nov-23 07:00N 43°60' E 022°56'0 0.0
2017-Nov-23 06:30N 43°60' E 022°56'0 0.0
2017-Nov-23 06:00N 43°60' E 022°56'0 0.0
2017-Nov-23 05:30N 43°60' E 022°56'0 0.0
2017-Nov-23 05:00N 43°60' E 022°56'0 0.0
2017-Nov-23 04:30N 43°60' E 022°56'0 0.0
2017-Nov-23 04:00N 43°60' E 022°56'0 0.0
2017-Nov-23 03:30N 43°60' E 022°56'0 0.0
2017-Nov-23 03:00N 43°60' E 022°56'0 0.0
2017-Nov-23 02:30N 43°60' E 022°56'0 0.0
2017-Nov-23 02:00N 43°60' E 022°56'0 0.0
2017-Nov-23 01:30N 43°60' E 022°56'0 0.0
2017-Nov-23 01:00N 43°60' E 022°56'0 0.0
2017-Nov-23 00:30N 43°60' E 022°56'0 0.0
2017-Nov-23 00:00N 43°60' E 022°56'0 0.0
2017-Nov-22 23:30N 43°60' E 022°56'0 0.0
2017-Nov-22 23:00N 43°60' E 022°56'0 0.0
2017-Nov-22 22:30N 43°60' E 022°56'0 0.0
2017-Nov-22 22:00N 43°60' E 022°56'0 0.7
2017-Nov-22 21:30N 43°60' E 022°55'1 1.2
2017-Nov-22 21:00N 44°00' E 022°56'4 7.1
2017-Nov-22 20:30N 44°01' E 023°01'3 6.4
2017-Nov-22 20:00N 44°04' E 023°03'3 5.9
2017-Nov-22 19:30N 44°06' E 022°60'  
2017-Nov-15 06:54N 44°12' E 028°23'2 4.7
2017-Nov-15 06:30N 44°10' E 028°24'1 2.4
2017-Nov-15 05:56N 44°09' E 028°26'5 3.2
2017-Nov-15 04:22N 44°06' E 028°31'1 3.9
2017-Nov-15 04:00N 44°06' E 028°33'2 4.0
2017-Nov-15 03:30N 44°06' E 028°36'1 2.0
2017-Nov-15 03:00N 44°06' E 028°37'0 0.3
2017-Nov-15 02:30N 44°06' E 028°38'1 1.9
2017-Nov-15 02:00N 44°06' E 028°39'1 1.9
2017-Nov-15 01:30N 44°07' E 028°39'0 0.5
2017-Nov-15 01:00N 44°08' E 028°39'0 0.0
2017-Nov-15 00:30N 44°08' E 028°39'0 0.0
2017-Nov-15 00:01N 44°08' E 028°39'0 0.0
2017-Nov-14 23:30N 44°08' E 028°39'0 0.0
2017-Nov-14 23:01N 44°08' E 028°39'0 0.0
2017-Nov-14 22:30N 44°08' E 028°39'0 0.0
2017-Nov-14 22:00N 44°08' E 028°39'0 0.0
2017-Nov-14 21:31N 44°08' E 028°39'0 0.0
2017-Nov-14 21:01N 44°08' E 028°39'0 0.8
2017-Nov-14 20:29N 44°08' E 028°39'0 0.0
2017-Nov-14 20:00N 44°08' E 028°39'0 0.0
2017-Nov-14 19:30N 44°08' E 028°39'0 0.0
2017-Nov-14 19:00N 44°08' E 028°39'0 0.0
2017-Nov-14 18:30N 44°08' E 028°39'0 0.0
2017-Nov-14 18:00N 44°08' E 028°39'0 0.0
2017-Nov-14 17:30N 44°08' E 028°39'0 0.0
2017-Nov-14 17:00N 44°08' E 028°39'0 0.0
2017-Nov-14 16:30N 44°08' E 028°39'0 0.0
2017-Nov-14 16:00N 44°08' E 028°39'0 0.0
2017-Nov-14 15:30N 44°08' E 028°39'0 0.0
2017-Nov-14 15:00N 44°08' E 028°39'0 0.0
2017-Nov-14 14:30N 44°08' E 028°39'0 0.0
2017-Nov-14 14:00N 44°08' E 028°39'0 0.0
2017-Nov-14 13:30N 44°08' E 028°39'0 0.0
2017-Nov-14 13:00N 44°08' E 028°39'0 0.0
2017-Nov-14 12:30N 44°08' E 028°39'0 0.0
2017-Nov-14 12:00N 44°08' E 028°39'0 0.0
2017-Nov-14 11:30N 44°08' E 028°39'0 0.0
2017-Nov-14 11:00N 44°08' E 028°39'0 0.0
2017-Nov-14 10:30N 44°08' E 028°39'0 0.0
2017-Nov-14 10:00N 44°08' E 028°39'0 0.0
2017-Nov-14 09:30N 44°08' E 028°39'0 0.0
2017-Nov-14 09:00N 44°08' E 028°39'0 0.0
2017-Nov-14 08:30N 44°08' E 028°39'0 0.0
2017-Nov-14 08:00N 44°08' E 028°39'1 1.6
2017-Nov-14 07:30N 44°07' E 028°39'0 0.2
2017-Nov-14 07:00N 44°07' E 028°39'0 0.0
2017-Nov-14 06:30N 44°07' E 028°39'0 0.2
2017-Nov-14 06:00N 44°07' E 028°39'2 3.0
2017-Nov-14 05:30N 44°06' E 028°38'0 0.6
2017-Nov-14 05:00N 44°06' E 028°37'0 0.7
2017-Nov-14 04:30N 44°06' E 028°37'2 3.4
2017-Nov-14 04:00N 44°06' E 028°34'2 3.1
2017-Nov-14 03:29N 44°06' E 028°32'5 2.6
2017-Nov-14 01:21N 44°09' E 028°26'1 3.2
2017-Nov-14 01:00N 44°10' E 028°25'1 2.9
2017-Nov-14 00:30N 44°11' E 028°24'1 2.0
2017-Nov-14 00:00N 44°12' E 028°23'2 3.5
2017-Nov-13 23:30N 44°14' E 028°22'2 4.1
2017-Nov-13 23:00N 44°15' E 028°20'2 3.8
2017-Nov-13 22:30N 44°15' E 028°17'2 3.2
2017-Nov-13 21:59N 44°15' E 028°15'  

Dump ship's entire track history